sensor_id;sensor_type;location;lat;lon;timestamp;temperature;humidity
66576;SHT31;53428;47.686;16.584;2024-03-23T00:56:25;11.06;80.75
66576;SHT31;53428;47.686;16.584;2024-03-23T01:01:25;11.13;80.44
66576;SHT31;53428;47.686;16.584;2024-03-23T01:06:24;11.10;80.71
66576;SHT31;53428;47.686;16.584;2024-03-23T01:11:23;11.00;80.78
66576;SHT31;53428;47.686;16.584;2024-03-23T01:16:22;11.05;80.88
66576;SHT31;53428;47.686;16.584;2024-03-23T01:21:22;10.92;80.67
66576;SHT31;53428;47.686;16.584;2024-03-23T01:26:21;10.93;80.94
66576;SHT31;53428;47.686;16.584;2024-03-23T01:31:21;10.85;81.28
66576;SHT31;53428;47.686;16.584;2024-03-23T01:36:20;10.82;81.37
66576;SHT31;53428;47.686;16.584;2024-03-23T01:41:19;10.69;81.89
66576;SHT31;53428;47.686;16.584;2024-03-23T01:46:19;10.57;82.17
66576;SHT31;53428;47.686;16.584;2024-03-23T01:51:18;10.52;82.12
66576;SHT31;53428;47.686;16.584;2024-03-23T01:56:18;10.58;82.17
66576;SHT31;53428;47.686;16.584;2024-03-23T02:01:17;10.48;82.52
66576;SHT31;53428;47.686;16.584;2024-03-23T02:06:16;10.44;82.60
66576;SHT31;53428;47.686;16.584;2024-03-23T02:11:15;10.36;83.19
66576;SHT31;53428;47.686;16.584;2024-03-23T02:16:14;10.29;83.38
66576;SHT31;53428;47.686;16.584;2024-03-23T02:21:15;10.43;83.27
66576;SHT31;53428;47.686;16.584;2024-03-23T02:26:14;10.37;83.17
66576;SHT31;53428;47.686;16.584;2024-03-23T02:31:14;10.38;83.33
66576;SHT31;53428;47.686;16.584;2024-03-23T02:36:14;10.34;83.43
66576;SHT31;53428;47.686;16.584;2024-03-23T02:41:13;10.33;82.81
66576;SHT31;53428;47.686;16.584;2024-03-23T02:46:12;10.29;83.35
66576;SHT31;53428;47.686;16.584;2024-03-23T02:51:12;10.36;82.74
66576;SHT31;53428;47.686;16.584;2024-03-23T02:56:11;10.29;83.15
66576;SHT31;53428;47.686;16.584;2024-03-23T03:01:14;10.07;84.13
66576;SHT31;53428;47.686;16.584;2024-03-23T03:06:23;10.03;84.70
66576;SHT31;53428;47.686;16.584;2024-03-23T03:11:22;9.87;85.25
66576;SHT31;53428;47.686;16.584;2024-03-23T03:16:21;9.90;85.54
66576;SHT31;53428;47.686;16.584;2024-03-23T03:21:21;9.90;85.46
66576;SHT31;53428;47.686;16.584;2024-03-23T03:26:20;9.89;85.92
66576;SHT31;53428;47.686;16.584;2024-03-23T03:31:20;10.00;84.37
66576;SHT31;53428;47.686;16.584;2024-03-23T03:36:19;9.90;85.44
66576;SHT31;53428;47.686;16.584;2024-03-23T03:41:19;9.66;86.12
66576;SHT31;53428;47.686;16.584;2024-03-23T03:46:18;9.66;86.11
66576;SHT31;53428;47.686;16.584;2024-03-23T03:51:17;9.54;85.90
66576;SHT31;53428;47.686;16.584;2024-03-23T03:56:16;9.58;85.82
66576;SHT31;53428;47.686;16.584;2024-03-23T04:01:15;9.49;86.08
66576;SHT31;53428;47.686;16.584;2024-03-23T04:06:20;9.48;85.78
66576;SHT31;53428;47.686;16.584;2024-03-23T04:11:19;9.49;85.62
66576;SHT31;53428;47.686;16.584;2024-03-23T04:16:29;9.31;85.95
66576;SHT31;53428;47.686;16.584;2024-03-23T04:21:28;9.14;86.72
66576;SHT31;53428;47.686;16.584;2024-03-23T04:26:28;9.04;87.28
66576;SHT31;53428;47.686;16.584;2024-03-23T04:31:27;8.97;87.52
66576;SHT31;53428;47.686;16.584;2024-03-23T04:36:26;8.90;87.79
66576;SHT31;53428;47.686;16.584;2024-03-23T04:41:25;8.96;87.68
66576;SHT31;53428;47.686;16.584;2024-03-23T04:46:24;8.97;87.64
66576;SHT31;53428;47.686;16.584;2024-03-23T04:51:24;9.04;87.60
66576;SHT31;53428;47.686;16.584;2024-03-23T04:56:23;8.97;87.98
66576;SHT31;53428;47.686;16.584;2024-03-23T05:01:22;8.72;89.02
66576;SHT31;53428;47.686;16.584;2024-03-23T05:06:21;8.56;89.47
66576;SHT31;53428;47.686;16.584;2024-03-23T05:11:21;8.63;89.63
66576;SHT31;53428;47.686;16.584;2024-03-23T05:16:20;8.65;89.61
66576;SHT31;53428;47.686;16.584;2024-03-23T05:21:19;8.77;89.16
66576;SHT31;53428;47.686;16.584;2024-03-23T05:26:18;8.94;88.68
66576;SHT31;53428;47.686;16.584;2024-03-23T05:31:28;9.13;88.38
66576;SHT31;53428;47.686;16.584;2024-03-23T05:36:27;9.26;87.79
66576;SHT31;53428;47.686;16.584;2024-03-23T05:41:26;9.39;87.46
66576;SHT31;53428;47.686;16.584;2024-03-23T05:46:25;9.49;87.36
66576;SHT31;53428;47.686;16.584;2024-03-23T05:51:25;9.63;86.89
66576;SHT31;53428;47.686;16.584;2024-03-23T05:56:24;9.78;86.47
66576;SHT31;53428;47.686;16.584;2024-03-23T06:01:25;9.87;86.07
66576;SHT31;53428;47.686;16.584;2024-03-23T06:06:28;10.21;85.47
66576;SHT31;53428;47.686;16.584;2024-03-23T06:11:29;10.34;85.16
66576;SHT31;53428;47.686;16.584;2024-03-23T06:16:28;10.45;85.44
66576;SHT31;53428;47.686;16.584;2024-03-23T06:21:27;10.86;84.24
66576;SHT31;53428;47.686;16.584;2024-03-23T06:26:26;11.02;82.99
66576;SHT31;53428;47.686;16.584;2024-03-23T06:31:26;11.06;82.86
66576;SHT31;53428;47.686;16.584;2024-03-23T06:36:25;11.24;82.24
66576;SHT31;53428;47.686;16.584;2024-03-23T06:41:25;11.66;81.96
66576;SHT31;53428;47.686;16.584;2024-03-23T06:46:24;12.14;80.25
66576;SHT31;53428;47.686;16.584;2024-03-23T06:51:23;11.89;81.30
66576;SHT31;53428;47.686;16.584;2024-03-23T06:56:23;12.37;79.54
66576;SHT31;53428;47.686;16.584;2024-03-23T07:01:22;13.42;76.31
66576;SHT31;53428;47.686;16.584;2024-03-23T07:06:21;13.67;75.60
66576;SHT31;53428;47.686;16.584;2024-03-23T07:11:21;13.88;74.78
66576;SHT31;53428;47.686;16.584;2024-03-23T07:16:21;13.71;75.25
66576;SHT31;53428;47.686;16.584;2024-03-23T07:21:20;14.01;72.91
66576;SHT31;53428;47.686;16.584;2024-03-23T07:26:19;13.77;71.63
66576;SHT31;53428;47.686;16.584;2024-03-23T07:31:18;14.00;71.28
66576;SHT31;53428;47.686;16.584;2024-03-23T07:36:17;14.39;70.14
66576;SHT31;53428;47.686;16.584;2024-03-23T07:41:20;14.25;71.13
66576;SHT31;53428;47.686;16.584;2024-03-23T07:46:20;14.39;70.90
66576;SHT31;53428;47.686;16.584;2024-03-23T07:51:22;14.46;70.72
66576;SHT31;53428;47.686;16.584;2024-03-23T07:56:22;14.82;69.85
66576;SHT31;53428;47.686;16.584;2024-03-23T08:01:22;14.69;70.32
66576;SHT31;53428;47.686;16.584;2024-03-23T08:06:22;14.92;69.66
66576;SHT31;53428;47.686;16.584;2024-03-23T08:11:22;14.83;70.29
66576;SHT31;53428;47.686;16.584;2024-03-23T08:16:21;15.08;70.13
66576;SHT31;53428;47.686;16.584;2024-03-23T08:21:21;15.44;71.09
66576;SHT31;53428;47.686;16.584;2024-03-23T08:26:20;15.59;70.42
66576;SHT31;53428;47.686;16.584;2024-03-23T08:31:19;15.57;68.65
66576;SHT31;53428;47.686;16.584;2024-03-23T08:36:19;15.21;69.71
66576;SHT31;53428;47.686;16.584;2024-03-23T08:41:18;15.50;68.65
66576;SHT31;53428;47.686;16.584;2024-03-23T08:46:17;15.79;68.46
66576;SHT31;53428;47.686;16.584;2024-03-23T08:51:16;15.42;70.27
66576;SHT31;53428;47.686;16.584;2024-03-23T08:56:16;15.11;71.41
66576;SHT31;53428;47.686;16.584;2024-03-23T09:01:16;15.03;71.27
66576;SHT31;53428;47.686;16.584;2024-03-23T09:06:15;15.02;71.78
66576;SHT31;53428;47.686;16.584;2024-03-23T09:11:15;14.82;72.90
66576;SHT31;53428;47.686;16.584;2024-03-23T09:16:15;15.08;72.15
66576;SHT31;53428;47.686;16.584;2024-03-23T09:21:14;15.03;72.79
66576;SHT31;53428;47.686;16.584;2024-03-23T09:26:13;15.19;72.05
66576;SHT31;53428;47.686;16.584;2024-03-23T09:31:13;16.03;70.17
66576;SHT31;53428;47.686;16.584;2024-03-23T09:36:14;16.47;67.96
66576;SHT31;53428;47.686;16.584;2024-03-23T09:41:14;16.34;68.46
66576;SHT31;53428;47.686;16.584;2024-03-23T09:46:14;16.36;69.10
66576;SHT31;53428;47.686;16.584;2024-03-23T09:51:13;16.48;69.83
66576;SHT31;53428;47.686;16.584;2024-03-23T09:56:13;17.71;68.04
66576;SHT31;53428;47.686;16.584;2024-03-23T10:01:12;18.81;66.78
66576;SHT31;53428;47.686;16.584;2024-03-23T10:06:11;18.94;66.04
66576;SHT31;53428;47.686;16.584;2024-03-23T10:11:15;19.70;62.89
66576;SHT31;53428;47.686;16.584;2024-03-23T10:16:22;19.70;64.39
66576;SHT31;53428;47.686;16.584;2024-03-23T10:21:22;19.14;64.41
66576;SHT31;53428;47.686;16.584;2024-03-23T10:26:24;19.15;65.64
66576;SHT31;53428;47.686;16.584;2024-03-23T10:31:31;19.67;64.78
66576;SHT31;53428;47.686;16.584;2024-03-23T10:36:30;19.51;63.91
66576;SHT31;53428;47.686;16.584;2024-03-23T10:41:31;19.46;64.75
66576;SHT31;53428;47.686;16.584;2024-03-23T10:46:31;19.56;64.46
66576;SHT31;53428;47.686;16.584;2024-03-23T10:51:30;19.90;61.58
66576;SHT31;53428;47.686;16.584;2024-03-23T10:56:33;19.53;62.89
66576;SHT31;53428;47.686;16.584;2024-03-23T11:01:34;19.66;62.62
66576;SHT31;53428;47.686;16.584;2024-03-23T11:06:37;19.66;62.30
66576;SHT31;53428;47.686;16.584;2024-03-23T11:11:37;19.52;63.31
66576;SHT31;53428;47.686;16.584;2024-03-23T11:16:36;20.27;62.78
66576;SHT31;53428;47.686;16.584;2024-03-23T11:21:54;20.92;58.63
66576;SHT31;53428;47.686;16.584;2024-03-23T11:26:54;21.11;55.11
66576;SHT31;53428;47.686;16.584;2024-03-23T11:31:53;21.19;54.79
66576;SHT31;53428;47.686;16.584;2024-03-23T11:37:04;21.37;53.27
66576;SHT31;53428;47.686;16.584;2024-03-23T11:42:04;22.26;52.30
66576;SHT31;53428;47.686;16.584;2024-03-23T11:47:09;21.68;53.14
66576;SHT31;53428;47.686;16.584;2024-03-23T11:52:09;23.50;48.96
66576;SHT31;53428;47.686;16.584;2024-03-23T11:57:09;23.41;48.56
66576;SHT31;53428;47.686;16.584;2024-03-23T12:02:11;24.65;45.74
66576;SHT31;53428;47.686;16.584;2024-03-23T12:07:14;24.59;45.78
66576;SHT31;53428;47.686;16.584;2024-03-23T12:12:17;24.94;46.32
66576;SHT31;53428;47.686;16.584;2024-03-23T12:17:21;24.72;45.45
66576;SHT31;53428;47.686;16.584;2024-03-23T12:22:21;24.91;46.73
66576;SHT31;53428;47.686;16.584;2024-03-23T12:27:20;25.14;46.06
66576;SHT31;53428;47.686;16.584;2024-03-23T12:32:20;24.94;46.69
66576;SHT31;53428;47.686;16.584;2024-03-23T12:37:19;25.42;46.62
66576;SHT31;53428;47.686;16.584;2024-03-23T12:42:18;25.86;45.65
66576;SHT31;53428;47.686;16.584;2024-03-23T12:47:17;25.08;46.51
66576;SHT31;53428;47.686;16.584;2024-03-23T12:52:17;28.04;42.03
66576;SHT31;53428;47.686;16.584;2024-03-23T12:57:16;26.69;42.16
66576;SHT31;53428;47.686;16.584;2024-03-23T13:02:15;26.79;41.79
66576;SHT31;53428;47.686;16.584;2024-03-23T13:07:14;26.62;41.88
66576;SHT31;53428;47.686;16.584;2024-03-23T13:12:14;27.30;40.94
66576;SHT31;53428;47.686;16.584;2024-03-23T13:17:13;27.64;38.73
66576;SHT31;53428;47.686;16.584;2024-03-23T13:22:13;26.31;40.05
66576;SHT31;53428;47.686;16.584;2024-03-23T13:27:12;26.43;39.89
66576;SHT31;53428;47.686;16.584;2024-03-23T13:32:11;27.73;38.72
66576;SHT31;53428;47.686;16.584;2024-03-23T13:37:10;28.21;37.87
66576;SHT31;53428;47.686;16.584;2024-03-23T13:42:10;28.70;37.08
66576;SHT31;53428;47.686;16.584;2024-03-23T13:47:11;29.90;35.04
66576;SHT31;53428;47.686;16.584;2024-03-23T13:52:11;25.34;39.91
66576;SHT31;53428;47.686;16.584;2024-03-23T13:57:10;19.98;58.35
66576;SHT31;53428;47.686;16.584;2024-03-23T14:02:09;18.98;61.00
66576;SHT31;53428;47.686;16.584;2024-03-23T14:07:10;16.28;65.04
66576;SHT31;53428;47.686;16.584;2024-03-23T14:12:10;15.75;67.21
66576;SHT31;53428;47.686;16.584;2024-03-23T14:17:09;18.12;61.15
66576;SHT31;53428;47.686;16.584;2024-03-23T14:22:11;18.56;60.45
66576;SHT31;53428;47.686;16.584;2024-03-23T14:27:10;17.26;61.63
66576;SHT31;53428;47.686;16.584;2024-03-23T14:32:09;15.83;65.69
66576;SHT31;53428;47.686;16.584;2024-03-23T14:37:09;17.26;62.32
66576;SHT31;53428;47.686;16.584;2024-03-23T14:42:08;18.35;58.50
66576;SHT31;53428;47.686;16.584;2024-03-23T14:47:07;15.50;65.49
66576;SHT31;53428;47.686;16.584;2024-03-23T14:52:07;14.89;66.44
66576;SHT31;53428;47.686;16.584;2024-03-23T14:57:08;14.93;66.29
66576;SHT31;53428;47.686;16.584;2024-03-23T15:02:10;14.65;65.99
66576;SHT31;53428;47.686;16.584;2024-03-23T15:07:11;14.11;66.03
66576;SHT31;53428;47.686;16.584;2024-03-23T15:12:11;13.79;66.81
66576;SHT31;53428;47.686;16.584;2024-03-23T15:17:10;13.48;66.95
66576;SHT31;53428;47.686;16.584;2024-03-23T15:22:10;13.25;67.74
66576;SHT31;53428;47.686;16.584;2024-03-23T15:27:09;12.91;68.74
66576;SHT31;53428;47.686;16.584;2024-03-23T15:32:09;12.59;69.73
66576;SHT31;53428;47.686;16.584;2024-03-23T15:37:08;11.98;71.14
66576;SHT31;53428;47.686;16.584;2024-03-23T15:42:07;11.73;72.59
66576;SHT31;53428;47.686;16.584;2024-03-23T15:47:07;11.33;74.23
66576;SHT31;53428;47.686;16.584;2024-03-23T15:52:06;11.16;74.79
66576;SHT31;53428;47.686;16.584;2024-03-23T15:57:05;11.16;74.11
66576;SHT31;53428;47.686;16.584;2024-03-23T16:02:06;11.15;73.28
66576;SHT31;53428;47.686;16.584;2024-03-23T16:07:05;10.75;71.74
66576;SHT31;53428;47.686;16.584;2024-03-23T16:12:05;10.40;71.57
66576;SHT31;53428;47.686;16.584;2024-03-23T16:17:04;9.96;73.61
66576;SHT31;53428;47.686;16.584;2024-03-23T16:22:03;9.24;78.41
66576;SHT31;53428;47.686;16.584;2024-03-23T16:27:03;8.84;80.95
66576;SHT31;53428;47.686;16.584;2024-03-23T16:32:03;8.52;83.62
66576;SHT31;53428;47.686;16.584;2024-03-23T16:37:02;8.35;85.02
66576;SHT31;53428;47.686;16.584;2024-03-23T16:42:02;8.07;89.34
66576;SHT31;53428;47.686;16.584;2024-03-23T16:47:03;7.69;92.58
66576;SHT31;53428;47.686;16.584;2024-03-23T16:52:02;7.65;91.93
66576;SHT31;53428;47.686;16.584;2024-03-23T16:57:02;7.56;92.34
66576;SHT31;53428;47.686;16.584;2024-03-23T17:02:02;7.70;90.20
66576;SHT31;53428;47.686;16.584;2024-03-23T17:07:01;7.65;90.68
66576;SHT31;53428;47.686;16.584;2024-03-23T17:12:00;7.65;89.03
66576;SHT31;53428;47.686;16.584;2024-03-23T17:17:00;7.93;84.68
66576;SHT31;53428;47.686;16.584;2024-03-23T17:21:59;7.95;85.06
66576;SHT31;53428;47.686;16.584;2024-03-23T17:26:58;8.03;84.74
66576;SHT31;53428;47.686;16.584;2024-03-23T17:31:57;8.05;83.86
66576;SHT31;53428;47.686;16.584;2024-03-23T17:36:57;7.79;85.08
66576;SHT31;53428;47.686;16.584;2024-03-23T17:41:58;7.83;84.15
66576;SHT31;53428;47.686;16.584;2024-03-23T17:46:58;7.98;83.42
66576;SHT31;53428;47.686;16.584;2024-03-23T17:52:00;8.08;83.94
66576;SHT31;53428;47.686;16.584;2024-03-23T17:57:01;8.08;84.70
66576;SHT31;53428;47.686;16.584;2024-03-23T18:02:02;8.05;83.32
66576;SHT31;53428;47.686;16.584;2024-03-23T18:07:01;7.84;81.84
66576;SHT31;53428;47.686;16.584;2024-03-23T18:12:01;7.94;83.15
66576;SHT31;53428;47.686;16.584;2024-03-23T18:17:01;7.73;85.02
66576;SHT31;53428;47.686;16.584;2024-03-23T18:22:01;7.94;81.97
66576;SHT31;53428;47.686;16.584;2024-03-23T18:27:01;7.79;82.88
66576;SHT31;53428;47.686;16.584;2024-03-23T18:32:00;7.62;83.75
66576;SHT31;53428;47.686;16.584;2024-03-23T18:36:59;7.59;84.05
66576;SHT31;53428;47.686;16.584;2024-03-23T18:41:58;7.45;83.37
66576;SHT31;53428;47.686;16.584;2024-03-23T18:46:58;7.35;84.53
66576;SHT31;53428;47.686;16.584;2024-03-23T18:51:58;7.66;81.91
66576;SHT31;53428;47.686;16.584;2024-03-23T18:56:57;7.62;83.19
66576;SHT31;53428;47.686;16.584;2024-03-23T19:01:57;7.65;82.02
66576;SHT31;53428;47.686;16.584;2024-03-23T19:06:56;7.73;80.11
66576;SHT31;53428;47.686;16.584;2024-03-23T19:11:55;7.77;82.13
66576;SHT31;53428;47.686;16.584;2024-03-23T19:16:55;7.84;83.75
66576;SHT31;53428;47.686;16.584;2024-03-23T19:21:55;7.51;87.71
66576;SHT31;53428;47.686;16.584;2024-03-23T19:26:54;7.89;83.64
66576;SHT31;53428;47.686;16.584;2024-03-23T19:31:53;7.59;87.77
66576;SHT31;53428;47.686;16.584;2024-03-23T19:36:52;7.77;84.75
66576;SHT31;53428;47.686;16.584;2024-03-23T19:41:52;7.65;84.13
66576;SHT31;53428;47.686;16.584;2024-03-23T19:46:51;7.77;82.61
66576;SHT31;53428;47.686;16.584;2024-03-23T19:51:51;7.86;82.87
66576;SHT31;53428;47.686;16.584;2024-03-23T19:56:51;7.77;84.67
66576;SHT31;53428;47.686;16.584;2024-03-23T20:01:50;7.76;83.93
66576;SHT31;53428;47.686;16.584;2024-03-23T20:06:49;7.53;83.21
66576;SHT31;53428;47.686;16.584;2024-03-23T20:11:49;7.48;85.56
66576;SHT31;53428;47.686;16.584;2024-03-23T20:16:49;7.62;81.62
66576;SHT31;53428;47.686;16.584;2024-03-23T20:21:48;7.53;81.45
66576;SHT31;53428;47.686;16.584;2024-03-23T20:26:47;7.62;80.75
66576;SHT31;53428;47.686;16.584;2024-03-23T20:31:46;7.65;80.96
66576;SHT31;53428;47.686;16.584;2024-03-23T20:36:46;7.61;81.81
66576;SHT31;53428;47.686;16.584;2024-03-23T20:41:45;7.61;81.82
66576;SHT31;53428;47.686;16.584;2024-03-23T20:46:45;7.58;81.92
66576;SHT31;53428;47.686;16.584;2024-03-23T20:51:46;7.59;82.76
66576;SHT31;53428;47.686;16.584;2024-03-23T20:56:46;7.58;82.67
66576;SHT31;53428;47.686;16.584;2024-03-23T21:01:45;7.67;79.98
66576;SHT31;53428;47.686;16.584;2024-03-23T21:06:44;7.70;78.83
66576;SHT31;53428;47.686;16.584;2024-03-23T21:11:44;7.79;77.60
66576;SHT31;53428;47.686;16.584;2024-03-23T21:16:43;7.80;77.10
66576;SHT31;53428;47.686;16.584;2024-03-23T21:21:43;7.89;76.06
66576;SHT31;53428;47.686;16.584;2024-03-23T21:26:42;7.84;76.40
66576;SHT31;53428;47.686;16.584;2024-03-23T21:31:41;7.86;74.25
66576;SHT31;53428;47.686;16.584;2024-03-23T21:36:41;7.21;76.05
66576;SHT31;53428;47.686;16.584;2024-03-23T21:41:40;6.95;78.29
66576;SHT31;53428;47.686;16.584;2024-03-23T21:46:40;7.07;76.96
66576;SHT31;53428;47.686;16.584;2024-03-23T21:51:39;6.95;77.83
66576;SHT31;53428;47.686;16.584;2024-03-23T21:56:38;7.18;76.08
66576;SHT31;53428;47.686;16.584;2024-03-23T22:01:38;7.26;75.91
66576;SHT31;53428;47.686;16.584;2024-03-23T22:06:37;6.93;78.14
66576;SHT31;53428;47.686;16.584;2024-03-23T22:11:37;6.90;78.28
66576;SHT31;53428;47.686;16.584;2024-03-23T22:16:36;6.63;79.90
66576;SHT31;53428;47.686;16.584;2024-03-23T22:21:35;6.50;81.14
66576;SHT31;53428;47.686;16.584;2024-03-23T22:26:35;6.43;80.83
66576;SHT31;53428;47.686;16.584;2024-03-23T22:31:35;6.54;81.53
66576;SHT31;53428;47.686;16.584;2024-03-23T22:36:34;6.22;82.89
66576;SHT31;53428;47.686;16.584;2024-03-23T22:41:33;5.83;83.80
66576;SHT31;53428;47.686;16.584;2024-03-23T22:46:33;5.61;84.78
66576;SHT31;53428;47.686;16.584;2024-03-23T22:51:32;6.00;86.59
66576;SHT31;53428;47.686;16.584;2024-03-23T22:56:31;6.08;85.17
66576;SHT31;53428;47.686;16.584;2024-03-23T23:01:30;6.11;85.05
66576;SHT31;53428;47.686;16.584;2024-03-23T23:06:30;6.07;85.98
66576;SHT31;53428;47.686;16.584;2024-03-23T23:11:29;5.75;85.90
66576;SHT31;53428;47.686;16.584;2024-03-23T23:16:28;5.83;86.04
66576;SHT31;53428;47.686;16.584;2024-03-23T23:21:28;5.84;85.13
66576;SHT31;53428;47.686;16.584;2024-03-23T23:26:27;6.08;82.91
66576;SHT31;53428;47.686;16.584;2024-03-23T23:31:26;6.11;82.62
66576;SHT31;53428;47.686;16.584;2024-03-23T23:36:26;6.14;81.74
66576;SHT31;53428;47.686;16.584;2024-03-23T23:41:25;6.28;78.99
66576;SHT31;53428;47.686;16.584;2024-03-23T23:46:24;6.33;78.93
66576;SHT31;53428;47.686;16.584;2024-03-23T23:51:24;6.35;79.34
66576;SHT31;53428;47.686;16.584;2024-03-23T23:56:23;6.38;79.03
